Time;durP1;ratioP1;P1;durP2;ratioP2;P2;SDS_P1;SDS_P2;PMS_P1;PMS_P2;Temp;Humidity;BMP_temperature;BMP_pressure;BME280_temperature;BME280_humidity;BME280_pressure;Samples;Min_cycle;Max_cycle;Signal;HPM_P1;HPM_P2
2022/08/02 00:01:30;;;;;;;1.25;1.10;;;21.90;99.90;;;;;;5038893;28;20042;-87
2022/08/02 00:03:55;;;;;;;1.38;1.27;;;21.90;99.90;;;;;;5039537;28;20032;-88
2022/08/02 00:06:21;;;;;;;2.65;1.20;;;22.00;99.90;;;;;;5039561;28;20016;-87
2022/08/02 00:08:47;;;;;;;4.05;1.30;;;22.00;99.90;;;;;;5038574;28;20065;-86
2022/08/02 00:11:13;;;;;;;2.42;1.48;;;22.10;99.90;;;;;;5039201;28;20041;-87
2022/08/02 00:13:39;;;;;;;3.47;1.70;;;22.00;99.90;;;;;;5038460;28;20041;-88
2022/08/02 00:16:05;;;;;;;4.38;1.58;;;22.00;99.90;;;;;;5038205;28;20073;-88
2022/08/02 00:18:31;;;;;;;6.60;1.60;;;21.90;99.90;;;;;;5037356;28;20106;-88
2022/08/02 00:20:56;;;;;;;3.08;1.65;;;21.90;99.90;;;;;;5034105;28;20049;-88
2022/08/02 00:23:22;;;;;;;4.28;2.15;;;21.80;99.90;;;;;;5033329;28;20036;-86
2022/08/02 00:25:48;;;;;;;3.47;1.60;;;21.70;99.90;;;;;;5017047;28;20021;-86
2022/08/02 00:28:14;;;;;;;2.65;1.48;;;21.70;99.90;;;;;;5033793;28;20078;-87
2022/08/02 00:30:40;;;;;;;4.63;2.08;;;21.70;99.90;;;;;;5035042;28;20032;-88
2022/08/02 00:33:07;;;;;;;2.50;1.88;;;21.70;99.90;;;;;;5037086;28;20025;-86
2022/08/02 00:35:33;;;;;;;1.92;1.73;;;21.80;99.90;;;;;;5037997;28;20038;-88
2022/08/02 00:37:59;;;;;;;2.97;1.70;;;21.90;99.90;;;;;;5038593;28;20041;-86
2022/08/02 00:40:25;;;;;;;3.15;1.92;;;21.90;99.90;;;;;;5038063;28;20018;-86
2022/08/02 00:43:26;;;;;;;2.40;1.88;;;21.80;99.90;;;;;;5037989;28;20057;-87
2022/08/02 00:45:53;;;;;;;3.38;2.25;;;21.70;99.90;;;;;;5037656;28;20045;-87
2022/08/02 00:48:19;;;;;;;2.92;1.63;;;21.60;99.90;;;;;;5037891;28;20074;-85
2022/08/02 00:50:45;;;;;;;3.45;1.70;;;21.50;99.90;;;;;;5038495;28;20018;-86
2022/08/02 00:53:11;;;;;;;2.55;1.58;;;21.50;99.90;;;;;;5038396;28;20069;-87
2022/08/02 00:55:38;;;;;;;3.05;1.98;;;21.40;99.90;;;;;;5037637;28;20022;-86
2022/08/02 00:58:05;;;;;;;3.00;1.95;;;21.30;99.90;;;;;;5021452;28;20045;-87
2022/08/02 01:00:30;;;;;;;3.08;1.60;;;21.30;99.90;;;;;;5035531;28;20054;-87
2022/08/02 01:02:56;;;;;;;2.85;1.70;;;21.30;99.90;;;;;;5019736;28;20045;-88
2022/08/02 01:05:22;;;;;;;2.97;1.67;;;21.20;99.90;;;;;;5037617;28;20022;-86
2022/08/02 01:07:48;;;;;;;2.22;1.65;;;21.30;99.90;;;;;;5018974;28;20037;-87
2022/08/02 01:10:14;;;;;;;1.75;1.50;;;21.40;99.90;;;;;;5034530;28;20097;-88
2022/08/02 01:12:40;;;;;;;2.65;1.52;;;21.40;99.90;;;;;;5035574;28;20082;-86
2022/08/02 01:15:09;;;;;;;4.05;1.65;;;21.40;99.90;;;;;;5035671;28;20113;-87
2022/08/02 01:17:55;;;;;;;1.75;1.48;;;21.30;99.90;;;;;;5030469;28;20017;-87
2022/08/02 01:20:39;;;;;;;2.63;1.42;;;21.30;99.90;;;;;;5033595;28;20038;-88
2022/08/02 01:23:23;;;;;;;5.82;1.55;;;21.30;99.90;;;;;;5029728;28;20026;-86
2022/08/02 01:26:10;;;;;;;1.95;1.42;;;21.30;99.90;;;;;;5034973;28;20045;-87
2022/08/02 01:28:42;;;;;;;3.92;1.45;;;21.30;99.90;;;;;;5037909;28;20040;-86
2022/08/02 01:31:28;;;;;;;2.42;1.30;;;21.30;99.90;;;;;;5038028;28;20050;-84
2022/08/02 01:34:05;;;;;;;1.60;1.35;;;21.30;99.90;;;;;;5038115;28;20026;-85
2022/08/02 01:36:37;;;;;;;1.67;1.30;;;21.20;99.90;;;;;;5037723;28;20030;-86
2022/08/02 01:39:08;;;;;;;1.40;1.30;;;21.20;99.90;;;;;;5038180;28;20022;-86
2022/08/02 01:41:34;;;;;;;3.05;1.38;;;21.20;99.90;;;;;;5037416;28;20030;-86
2022/08/02 01:44:01;;;;;;;1.52;1.20;;;21.20;99.90;;;;;;5021202;28;20108;-88
2022/08/02 01:46:30;;;;;;;1.42;1.10;;;21.20;99.90;;;;;;5037485;28;20029;-86
2022/08/02 01:48:58;;;;;;;1.40;1.20;;;21.20;99.90;;;;;;5037410;28;20034;-86
2022/08/02 01:54:18;;;;;;;1.75;1.00;;;21.20;99.90;;;;;;5038572;28;20038;-84
2022/08/02 01:56:49;;;;;;;1.83;1.20;;;21.20;99.90;;;;;;5049266;23;20026;-87
2022/08/02 01:59:19;;;;;;;1.20;1.10;;;21.20;99.90;;;;;;5052741;28;20075;-87
2022/08/02 02:01:48;;;;;;;1.30;0.93;;;21.10;99.90;;;;;;5037988;28;20054;-87
2022/08/02 02:04:14;;;;;;;2.10;1.40;;;21.20;99.90;;;;;;5034950;28;20022;-88
2022/08/02 02:06:43;;;;;;;1.70;1.10;;;21.10;99.90;;;;;;5035530;28;20026;-87
2022/08/02 02:09:13;;;;;;;2.53;1.10;;;21.10;99.90;;;;;;5037213;28;20014;-87
2022/08/02 02:11:43;;;;;;;0.93;0.88;;;21.10;99.90;;;;;;5037581;28;20086;-86
2022/08/02 02:14:11;;;;;;;2.90;1.10;;;21.10;99.90;;;;;;5027365;28;20128;-88
2022/08/02 02:16:39;;;;;;;1.00;0.90;;;21.10;99.90;;;;;;5024637;28;20026;-89
2022/08/02 02:19:06;;;;;;;2.83;0.90;;;21.10;99.90;;;;;;5043386;28;20006;-87
2022/08/02 02:21:32;;;;;;;1.38;0.98;;;21.10;99.90;;;;;;5022844;28;20026;-85
2022/08/02 02:23:58;;;;;;;1.50;1.17;;;21.00;99.90;;;;;;5023491;28;20052;-87
2022/08/02 02:26:26;;;;;;;4.05;1.27;;;21.00;99.90;;;;;;5023492;28;20105;-86
2022/08/02 02:28:54;;;;;;;2.30;1.20;;;21.00;99.90;;;;;;5022804;28;20117;-88
2022/08/02 02:31:20;;;;;;;1.42;0.93;;;21.00;99.90;;;;;;5023411;28;20052;-88
2022/08/02 02:33:55;;;;;;;1.52;0.85;;;21.00;99.90;;;;;;5022313;28;20109;-88
2022/08/02 02:36:22;;;;;;;1.48;1.17;;;21.00;99.90;;;;;;5024431;28;20086;-87
2022/08/02 02:38:50;;;;;;;1.45;1.08;;;21.10;99.90;;;;;;5024038;28;20097;-87
2022/08/02 02:41:19;;;;;;;1.42;1.00;;;21.00;99.90;;;;;;5014112;28;20117;-88
2022/08/02 02:43:49;;;;;;;2.03;1.13;;;21.00;99.90;;;;;;5009240;28;20064;-88
2022/08/02 02:49:12;;;;;;;1.85;1.40;;;20.90;99.90;;;;;;5413975;22;20061;-89
2022/08/02 02:51:59;;;;;;;;;;;;;;;;;;;;;
2022/08/02 02:55:01;;;;;;;1.83;0.98;;;20.90;99.90;;;;;;5043411;28;20033;-89
2022/08/02 02:57:34;;;;;;;1.70;1.10;;;20.90;99.90;;;;;;5036519;28;20103;-88
2022/08/02 03:00:17;;;;;;;0.93;0.93;;;20.80;99.90;;;;;;5040109;28;20032;-89
2022/08/02 03:03:01;;;;;;;2.15;1.08;;;20.80;99.90;;;;;;5040125;28;20069;-87
2022/08/02 03:05:27;;;;;;;2.80;1.08;;;20.80;99.90;;;;;;5024433;28;20048;-88
2022/08/02 03:07:54;;;;;;;2.55;1.30;;;20.90;99.90;;;;;;5025773;28;20018;-86
2022/08/02 03:10:21;;;;;;;1.48;1.30;;;20.80;99.90;;;;;;5040387;28;20024;-88
2022/08/02 03:12:47;;;;;;;1.42;1.20;;;20.90;99.90;;;;;;5041176;28;20025;-89
2022/08/02 03:15:14;;;;;;;2.55;1.20;;;20.90;99.90;;;;;;5041292;28;20041;-87
2022/08/02 03:17:45;;;;;;;1.58;1.40;;;20.80;99.90;;;;;;5057284;28;20029;-87
2022/08/02 03:20:14;;;;;;;2.88;1.10;;;20.70;99.90;;;;;;5039231;28;20014;-85
2022/08/02 03:22:41;;;;;;;2.15;1.40;;;20.70;99.90;;;;;;5040287;28;20052;-88
2022/08/02 03:25:08;;;;;;;1.73;1.27;;;20.60;99.90;;;;;;5058931;28;20017;-87
2022/08/02 03:27:34;;;;;;;1.50;1.40;;;20.60;99.90;;;;;;5026317;28;20041;-86
2022/08/02 03:30:00;;;;;;;5.20;1.40;;;20.60;99.90;;;;;;5043169;28;20013;-88
2022/08/02 03:32:26;;;;;;;4.43;1.88;;;20.50;99.90;;;;;;5060387;28;20069;-86
2022/08/02 03:34:53;;;;;;;2.08;1.50;;;20.50;99.90;;;;;;5043396;28;20040;-87
2022/08/02 03:37:20;;;;;;;4.40;1.90;;;20.40;99.90;;;;;;5060252;28;20030;-86
2022/08/02 03:39:46;;;;;;;3.05;1.80;;;20.50;99.90;;;;;;5043338;28;20097;-87
2022/08/02 03:42:13;;;;;;;2.38;1.67;;;20.50;99.90;;;;;;5060412;28;20041;-85
2022/08/02 03:44:39;;;;;;;3.25;1.90;;;20.50;99.90;;;;;;5042797;28;20036;-86
2022/08/02 03:47:06;;;;;;;2.10;1.80;;;20.50;99.90;;;;;;5059970;28;20036;-87
2022/08/02 03:49:34;;;;;;;2.90;1.60;;;20.50;99.90;;;;;;5042810;28;20029;-87
2022/08/02 03:52:00;;;;;;;2.83;1.80;;;20.40;99.90;;;;;;5043261;28;20034;-87
2022/08/02 03:54:27;;;;;;;3.63;1.73;;;20.40;99.90;;;;;;5042822;28;20013;-86
2022/08/02 03:56:53;;;;;;;4.60;2.00;;;20.30;99.90;;;;;;5026516;28;20030;-87
2022/08/02 03:59:19;;;;;;;3.15;1.70;;;20.30;99.90;;;;;;5026637;28;20020;-85
2022/08/02 04:01:45;;;;;;;5.50;1.85;;;20.30;99.90;;;;;;5060034;28;20056;-88
2022/08/02 04:04:11;;;;;;;6.07;1.88;;;20.40;99.90;;;;;;5025771;28;20029;-87
2022/08/02 04:06:37;;;;;;;2.75;1.75;;;20.40;99.90;;;;;;5059653;28;20009;-86
2022/08/02 04:09:03;;;;;;;3.90;1.70;;;20.50;99.90;;;;;;5059471;28;20041;-86
2022/08/02 04:11:32;;;;;;;3.30;1.80;;;20.50;99.90;;;;;;5042423;28;20021;-85
2022/08/02 04:14:10;;;;;;;1.92;1.67;;;20.60;99.90;;;;;;5040698;28;20038;-86
2022/08/02 04:16:54;;;;;;;10.60;4.90;;;20.60;99.90;;;;;;5040563;28;20061;-85
2022/08/02 04:19:35;;;;;;;5.75;2.20;;;20.70;99.90;;;;;;5057820;28;20017;-86
2022/08/02 04:22:05;;;;;;;2.95;2.28;;;20.80;99.90;;;;;;5038804;28;20065;-85
2022/08/02 04:24:38;;;;;;;3.28;1.90;;;20.90;99.90;;;;;;5040233;28;20060;-86
2022/08/02 04:27:07;;;;;;;15.50;2.55;;;20.90;99.90;;;;;;5037849;28;20036;-87
2022/08/02 04:29:35;;;;;;;3.55;1.80;;;21.00;99.90;;;;;;5032189;28;20036;-86
2022/08/02 04:32:03;;;;;;;5.47;2.20;;;21.00;99.90;;;;;;5031834;28;20017;-87
2022/08/02 04:34:30;;;;;;;2.85;1.80;;;21.00;99.90;;;;;;5015834;28;20022;-85
2022/08/02 04:36:57;;;;;;;5.63;1.85;;;21.10;99.90;;;;;;5036406;28;20047;-87
2022/08/02 04:39:23;;;;;;;7.68;2.05;;;21.10;99.90;;;;;;5041561;28;20026;-87
2022/08/02 04:41:49;;;;;;;7.75;2.55;;;21.10;99.90;;;;;;5041898;28;20018;-88
2022/08/02 04:44:15;;;;;;;15.18;2.72;;;21.10;99.90;;;;;;5042325;28;20040;-86
2022/08/02 04:46:43;;;;;;;4.80;2.10;;;21.20;99.90;;;;;;5034940;23;20045;-77
2022/08/02 04:49:09;;;;;;;9.85;2.63;;;21.20;99.90;;;;;;5033201;28;20029;-77
2022/08/02 04:51:40;;;;;;;9.35;2.20;;;21.30;99.90;;;;;;5033555;28;20037;-78
2022/08/02 04:54:07;;;;;;;7.65;2.60;;;21.40;99.90;;;;;;5033982;28;20033;-78
2022/08/02 04:56:33;;;;;;;3.85;2.13;;;21.50;99.90;;;;;;5036918;28;20014;-77
2022/08/02 04:58:59;;;;;;;5.47;2.00;;;21.60;99.90;;;;;;5038083;28;20124;-77
2022/08/02 05:01:25;;;;;;;4.75;2.30;;;21.80;99.90;;;;;;5022386;28;20025;-76
2022/08/02 05:03:50;;;;;;;5.88;2.05;;;22.00;99.90;;;;;;5023042;28;20036;-79
2022/08/02 05:06:18;;;;;;;4.90;2.30;;;22.30;99.90;;;;;;5041765;28;20030;-78
2022/08/02 05:08:45;;;;;;;8.45;3.05;;;22.60;99.90;;;;;;5040400;28;20087;-76
2022/08/02 05:11:11;;;;;;;3.75;2.40;;;22.60;99.90;;;;;;5040264;28;20024;-76
2022/08/02 05:13:37;;;;;;;5.15;2.10;;;22.90;99.90;;;;;;5039261;28;20409;-79
2022/08/02 05:16:03;;;;;;;4.05;2.25;;;23.20;99.90;;;;;;5014907;28;20034;-78
2022/08/02 05:18:29;;;;;;;3.28;2.00;;;23.20;99.90;;;;;;5033917;28;20120;-78
2022/08/02 05:20:55;;;;;;;2.70;2.00;;;23.10;99.90;;;;;;5033899;28;20021;-78
2022/08/02 05:23:21;;;;;;;4.07;2.17;;;23.10;99.90;;;;;;5034201;28;20077;-78
2022/08/02 05:25:47;;;;;;;2.42;1.98;;;23.20;99.90;;;;;;5034414;28;20047;-78
2022/08/02 05:28:12;;;;;;;3.47;2.05;;;23.40;99.90;;;;;;5033238;28;20006;-79
2022/08/02 05:30:39;;;;;;;2.85;2.10;;;23.40;99.90;;;;;;5032299;28;20032;-77
2022/08/02 05:33:05;;;;;;;2.92;1.90;;;23.50;99.90;;;;;;5032485;28;20034;-79
2022/08/02 05:35:31;;;;;;;3.63;1.98;;;23.60;99.90;;;;;;5032808;28;20033;-78
2022/08/02 05:37:56;;;;;;;3.28;1.92;;;23.70;99.90;;;;;;5033369;28;20052;-78
2022/08/02 05:40:22;;;;;;;6.18;1.63;;;23.60;99.90;;;;;;5033188;28;20029;-77
2022/08/02 05:42:48;;;;;;;4.00;2.05;;;23.50;99.90;;;;;;5033712;28;20044;-79
2022/08/02 05:45:14;;;;;;;2.70;2.00;;;23.40;99.90;;;;;;5033667;28;20516;-77
2022/08/02 05:47:40;;;;;;;2.25;1.70;;;23.30;99.90;;;;;;5032260;28;20473;-76
2022/08/02 05:50:07;;;;;;;4.28;2.10;;;23.20;99.90;;;;;;5031871;28;20032;-78
2022/08/02 05:52:42;;;;;;;2.50;1.90;;;23.30;99.90;;;;;;5033912;28;20091;-78
2022/08/02 05:55:32;;;;;;;3.17;1.83;;;23.40;99.90;;;;;;5037987;28;20034;-77
2022/08/02 05:58:09;;;;;;;8.77;1.90;;;23.50;99.90;;;;;;5032992;28;20499;-78
2022/08/02 06:00:39;;;;;;;6.07;1.90;;;23.70;99.90;;;;;;5015323;28;20083;-78
2022/08/02 06:03:21;;;;;;;3.63;2.22;;;23.60;99.90;;;;;;5014940;28;20057;-79
2022/08/02 06:05:50;;;;;;;2.15;1.73;;;23.50;99.90;;;;;;5032870;28;20028;-77
2022/08/02 06:08:16;;;;;;;2.83;2.00;;;23.50;99.90;;;;;;5039455;28;20057;-79
2022/08/02 06:10:45;;;;;;;5.88;2.50;;;23.40;99.90;;;;;;5014709;28;20544;-77
2022/08/02 06:13:13;;;;;;;3.95;2.33;;;23.40;99.90;;;;;;5033045;28;20026;-78
2022/08/02 06:15:39;;;;;;;3.00;2.15;;;23.50;99.90;;;;;;5033782;28;20029;-78
2022/08/02 06:18:06;;;;;;;3.15;2.10;;;23.40;99.90;;;;;;5033029;28;20078;-78
2022/08/02 06:20:36;;;;;;;3.33;2.03;;;23.50;99.90;;;;;;5036388;28;20033;-77
2022/08/02 06:23:04;;;;;;;5.50;2.20;;;23.70;99.90;;;;;;5034727;28;20435;-79
2022/08/02 06:25:32;;;;;;;3.22;2.20;;;23.90;99.90;;;;;;5034960;28;20123;-77
2022/08/02 06:28:05;;;;;;;9.35;2.38;;;24.20;99.90;;;;;;5038071;28;20025;-78
2022/08/02 06:30:32;;;;;;;5.70;2.17;;;24.40;99.90;;;;;;5041127;28;20026;-77
2022/08/02 06:32:59;;;;;;;7.20;2.50;;;24.60;99.90;;;;;;5040957;28;20075;-78
2022/08/02 06:35:50;;;;;;;5.03;2.22;;;24.60;99.90;;;;;;5037128;28;20064;-79
2022/08/02 06:38:20;;;;;;;3.03;2.40;;;24.50;99.90;;;;;;5036389;28;20047;-78
2022/08/02 06:41:02;;;;;;;2.95;2.28;;;24.40;99.90;;;;;;5036507;28;20079;-78
2022/08/02 06:43:51;;;;;;;6.55;2.40;;;24.40;99.90;;;;;;5041472;28;20041;-77
2022/08/02 06:46:17;;;;;;;4.32;2.03;;;24.40;99.90;;;;;;5041431;28;20087;-78
2022/08/02 06:48:43;;;;;;;3.38;2.42;;;24.30;99.90;;;;;;5043726;28;20013;-78
2022/08/02 06:51:09;;;;;;;3.55;2.40;;;24.20;99.90;;;;;;5042574;28;20048;-78
2022/08/02 06:53:35;;;;;;;4.05;2.17;;;24.20;99.90;;;;;;5045208;28;20469;-77
2022/08/02 06:56:00;;;;;;;4.53;2.40;;;24.20;99.90;;;;;;5039910;28;20054;-78
2022/08/02 06:58:26;;;;;;;3.05;1.85;;;24.20;99.90;;;;;;5036361;28;20113;-79
2022/08/02 07:00:52;;;;;;;2.97;2.13;;;24.20;99.90;;;;;;5035803;28;20085;-79
2022/08/02 07:03:18;;;;;;;3.22;2.10;;;24.20;99.90;;;;;;5035989;28;20079;-78
2022/08/02 07:05:47;;;;;;;6.80;2.45;;;24.20;99.90;;;;;;5036026;28;20136;-78
2022/08/02 07:08:17;;;;;;;3.45;2.22;;;24.20;99.90;;;;;;5018320;28;20103;-79
2022/08/02 07:10:43;;;;;;;7.68;2.22;;;24.20;99.90;;;;;;5038364;28;20048;-78
2022/08/02 07:13:09;;;;;;;3.55;2.25;;;24.10;99.90;;;;;;5040455;28;20037;-79
2022/08/02 07:15:36;;;;;;;5.30;2.00;;;24.10;99.90;;;;;;5021937;28;20441;-78
2022/08/02 07:18:02;;;;;;;4.90;2.35;;;24.00;99.90;;;;;;5029323;28;20028;-79
2022/08/02 07:20:28;;;;;;;4.57;2.33;;;24.00;99.90;;;;;;5039237;28;20021;-76
2022/08/02 07:22:54;;;;;;;5.47;2.15;;;24.00;99.90;;;;;;5034650;28;20052;-77
2022/08/02 07:25:20;;;;;;;4.30;2.22;;;24.10;99.90;;;;;;5034545;28;20105;-77
2022/08/02 07:27:46;;;;;;;4.40;2.28;;;24.20;99.90;;;;;;5016022;28;20109;-78
2022/08/02 07:30:11;;;;;;;2.67;2.33;;;24.20;99.90;;;;;;5033807;28;20025;-78
2022/08/02 07:32:37;;;;;;;2.90;2.10;;;24.20;99.90;;;;;;5033913;28;20032;-78
2022/08/02 07:35:04;;;;;;;2.30;2.10;;;24.40;99.90;;;;;;5019709;28;20047;-78
2022/08/02 07:37:32;;;;;;;7.85;2.38;;;24.40;99.90;;;;;;5022549;28;20364;-77
2022/08/02 07:39:57;;;;;;;4.30;2.13;;;24.60;99.90;;;;;;5035381;28;20025;-79
2022/08/02 07:42:23;;;;;;;5.95;2.70;;;24.80;99.90;;;;;;5040993;28;20045;-77
2022/08/02 07:44:49;;;;;;;3.30;2.22;;;24.90;99.90;;;;;;5039556;28;20068;-78
2022/08/02 07:47:15;;;;;;;4.00;2.45;;;25.10;99.90;;;;;;5037832;28;20033;-78
2022/08/02 07:49:43;;;;;;;4.70;2.47;;;25.20;99.90;;;;;;5020579;28;20082;-77
2022/08/02 07:52:09;;;;;;;6.00;2.40;;;25.30;99.90;;;;;;5033846;28;20049;-78
2022/08/02 07:54:35;;;;;;;4.07;2.92;;;25.40;99.90;;;;;;5033392;28;20068;-77
2022/08/02 07:57:00;;;;;;;4.95;2.50;;;25.80;99.90;;;;;;5015469;28;20088;-77
2022/08/02 07:59:26;;;;;;;5.95;2.47;;;25.90;99.90;;;;;;5015808;28;20405;-78
2022/08/02 08:01:52;;;;;;;3.85;2.45;;;25.90;99.90;;;;;;5033194;28;20037;-78
2022/08/02 08:04:18;;;;;;;4.40;2.40;;;26.00;99.90;;;;;;5033485;28;20025;-76
2022/08/02 08:06:48;;;;;;;3.17;2.88;;;26.20;99.90;;;;;;5035627;28;20397;-77
2022/08/02 08:09:14;;;;;;;3.90;2.70;;;26.40;99.90;;;;;;5036822;28;20033;-77
2022/08/02 08:11:39;;;;;;;3.67;2.20;;;26.50;99.90;;;;;;5038242;28;20041;-78
2022/08/02 08:14:06;;;;;;;4.95;2.35;;;26.70;99.90;;;;;;5038520;28;20044;-79
2022/08/02 08:16:32;;;;;;;4.18;2.45;;;26.80;99.90;;;;;;5016305;28;20025;-78
2022/08/02 08:18:58;;;;;;;3.45;2.40;;;26.80;99.90;;;;;;5015998;28;20452;-78
2022/08/02 08:21:24;;;;;;;5.22;3.47;;;26.30;99.90;;;;;;5034253;28;20022;-78
2022/08/02 08:23:49;;;;;;;3.83;2.30;;;25.90;99.90;;;;;;5034450;28;20034;-79
2022/08/02 08:26:15;;;;;;;2.60;2.40;;;25.70;99.90;;;;;;5033772;28;20101;-78
2022/08/02 08:28:41;;;;;;;2.90;2.38;;;25.80;99.90;;;;;;5025717;28;20451;-79
2022/08/02 08:31:07;;;;;;;5.30;2.08;;;25.90;99.90;;;;;;5008753;28;20025;-79
2022/08/02 08:33:33;;;;;;;4.07;2.20;;;26.30;99.90;;;;;;5035200;28;20017;-79
2022/08/02 08:35:58;;;;;;;6.65;2.20;;;26.60;99.90;;;;;;5034913;28;20408;-79
2022/08/02 08:38:24;;;;;;;7.53;2.40;;;26.90;99.90;;;;;;5034841;28;20025;-79
2022/08/02 08:40:50;;;;;;;4.95;2.13;;;27.20;99.70;;;;;;5037166;28;20029;-78
2022/08/02 08:43:17;;;;;;;3.42;2.05;;;27.50;99.20;;;;;;5021312;28;20037;-78
2022/08/02 08:45:44;;;;;;;4.85;2.05;;;27.60;98.80;;;;;;5033945;28;20025;-79
2022/08/02 08:48:12;;;;;;;2.67;1.92;;;27.70;98.60;;;;;;5035011;28;20025;-78
2022/08/02 08:51:06;;;;;;;2.80;1.95;;;27.80;98.50;;;;;;5033615;28;20495;-79
2022/08/02 08:53:38;;;;;;;2.85;1.88;;;27.90;97.90;;;;;;5034038;28;20053;-79
2022/08/02 08:56:05;;;;;;;6.20;1.80;;;27.90;97.70;;;;;;5043266;28;20037;-78
2022/08/02 08:58:31;;;;;;;3.50;1.98;;;28.10;97.20;;;;;;5008074;28;20025;-77
2022/08/02 09:00:58;;;;;;;3.95;1.95;;;28.10;97.10;;;;;;5039836;28;20041;-78
2022/08/02 09:03:24;;;;;;;1.98;1.83;;;28.00;97.10;;;;;;5036517;28;20033;-78
2022/08/02 09:05:50;;;;;;;3.05;2.10;;;27.90;97.30;;;;;;5037532;28;20044;-78
2022/08/02 09:08:17;;;;;;;2.72;2.17;;;27.90;97.40;;;;;;5002584;28;20025;-79
2022/08/02 09:10:46;;;;;;;5.22;1.80;;;27.90;97.80;;;;;;5039572;28;20474;-79
2022/08/02 09:13:21;;;;;;;4.30;2.53;;;27.90;97.50;;;;;;5040863;28;20100;-78
2022/08/02 09:16:07;;;;;;;7.30;2.05;;;27.50;98.00;;;;;;5038586;28;20426;-79
2022/08/02 09:18:39;;;;;;;4.88;2.67;;;26.70;99.30;;;;;;5040013;28;20109;-83
2022/08/02 09:21:07;;;;;;;4.50;3.05;;;26.10;99.90;;;;;;5050299;28;20017;-83
2022/08/02 09:23:39;;;;;;;2.53;2.13;;;26.00;99.90;;;;;;5048961;28;20029;-85
2022/08/02 09:26:07;;;;;;;9.27;3.58;;;26.20;99.90;;;;;;5047907;28;20029;-82
2022/08/02 09:28:35;;;;;;;15.38;4.47;;;26.40;99.90;;;;;;5045043;28;20025;-82
2022/08/02 09:31:16;;;;;;;3.78;2.47;;;26.50;99.90;;;;;;5024746;28;20033;-85
2022/08/02 09:33:44;;;;;;;7.07;2.53;;;26.60;99.90;;;;;;5023790;28;20079;-82
2022/08/02 09:36:12;;;;;;;3.42;2.72;;;26.70;99.90;;;;;;5043707;28;20029;-83
2022/08/02 09:38:39;;;;;;;3.88;2.55;;;26.90;99.90;;;;;;5046361;28;20069;-84
2022/08/02 09:41:19;;;;;;;3.25;2.42;;;27.00;99.90;;;;;;5036119;28;20084;-83
2022/08/02 09:43:45;;;;;;;2.95;2.40;;;27.10;99.90;;;;;;5029394;28;20452;-81
2022/08/02 09:46:17;;;;;;;10.60;3.30;;;28.10;99.10;;;;;;5046694;28;20098;-83
2022/08/02 09:48:48;;;;;;;9.18;2.22;;;29.10;97.60;;;;;;5026083;28;20086;-83
2022/08/02 09:51:25;;;;;;;3.38;1.70;;;29.50;96.30;;;;;;5044636;28;20053;-83
2022/08/02 09:54:14;;;;;;;3.90;2.00;;;30.10;95.40;;;;;;5045301;28;20069;-85
2022/08/02 09:56:45;;;;;;;1.48;1.27;;;30.70;94.10;;;;;;5045725;28;20083;-84
2022/08/02 09:59:11;;;;;;;2.22;1.75;;;31.80;91.70;;;;;;5045803;28;20029;-84
2022/08/02 10:01:38;;;;;;;3.80;1.55;;;32.70;90.80;;;;;;5035236;28;20059;-84
2022/08/02 10:04:06;;;;;;;3.17;1.85;;;34.10;88.50;;;;;;5038830;28;20100;-84
2022/08/02 10:06:33;;;;;;;3.58;1.30;;;35.00;85.20;;;;;;5052205;28;20017;-85
2022/08/02 10:08:59;;;;;;;3.75;1.70;;;36.00;82.00;;;;;;5035394;28;20029;-83
2022/08/02 10:11:26;;;;;;;2.72;1.77;;;36.70;79.10;;;;;;5055016;28;20086;-84
2022/08/02 10:13:54;;;;;;;5.00;2.65;;;37.30;76.60;;;;;;5060650;28;20077;-85
2022/08/02 10:16:22;;;;;;;2.15;1.55;;;38.10;73.70;;;;;;5061174;28;20010;-85
2022/08/02 10:18:54;;;;;;;1.13;1.00;;;39.50;70.50;;;;;;5043660;28;20038;-83
2022/08/02 10:21:29;;;;;;;2.97;1.50;;;40.70;66.80;;;;;;5060480;28;20033;-84
2022/08/02 10:24:10;;;;;;;2.50;1.23;;;41.00;64.40;;;;;;5059836;28;20044;-83
2022/08/02 10:26:40;;;;;;;1.85;1.10;;;40.70;63.10;;;;;;5059965;28;20020;-84
2022/08/02 10:29:08;;;;;;;2.15;1.45;;;41.50;61.70;;;;;;5041673;28;20028;-83
2022/08/02 10:31:51;;;;;;;3.95;1.38;;;42.00;60.80;;;;;;5055868;28;20120;-84
2022/08/02 10:34:22;;;;;;;1.50;1.40;;;42.80;58.90;;;;;;5037434;28;20060;-82
2022/08/02 10:36:49;;;;;;;2.60;1.25;;;43.00;58.10;;;;;;5053716;28;20389;-83
2022/08/02 10:39:15;;;;;;;1.25;1.00;;;43.50;57.10;;;;;;5035228;28;20033;-82
2022/08/02 10:41:43;;;;;;;1.90;1.10;;;43.10;57.00;;;;;;5051642;28;20085;-84
2022/08/02 10:44:29;;;;;;;2.38;1.80;;;43.20;56.30;;;;;;5034513;28;20022;-83
2022/08/02 10:47:35;;;;;;;2.95;1.65;;;43.70;55.50;;;;;;5289512;23;20060;-88
2022/08/02 10:50:43;;;;;;;2.58;1.60;;;43.50;55.60;;;;;;5026177;28;20052;-88
2022/08/02 10:54:08;;;;;;;1.65;1.38;;;44.00;54.50;;;;;;5044699;28;20065;-88
2022/08/02 11:04:30;;;;;;;;;;;42.10;54.80;;;;;;5035279;28;20345;-87
2022/08/02 11:07:44;;;;;;;3.78;1.50;;;42.80;54.00;;;;;;5029537;28;19972;-87
2022/08/02 11:10:38;;;;;;;1.33;1.05;;;42.70;53.40;;;;;;5031052;28;20042;-87
2022/08/02 11:13:25;;;;;;;1.90;1.00;;;43.60;53.00;;;;;;5029887;28;20034;-86
2022/08/02 11:16:16;;;;;;;3.30;1.40;;;44.20;52.70;;;;;;5029917;28;20033;-88
2022/08/02 11:19:19;;;;;;;3.63;1.60;;;44.00;52.90;;;;;;5010701;28;20053;-88
2022/08/02 11:22:18;;;;;;;2.35;1.38;;;44.50;52.40;;;;;;5019633;28;20026;-88
2022/08/02 11:24:56;;;;;;;1.20;1.10;;;45.10;51.00;;;;;;5019111;28;20033;-88
2022/08/02 11:28:18;;;;;;;1.65;1.25;;;45.20;51.00;;;;;;5022302;28;20117;-85
2022/08/02 11:31:07;;;;;;;1.92;1.20;;;44.30;51.20;;;;;;4987847;28;20049;-87
2022/08/02 11:33:38;;;;;;;1.27;1.17;;;44.30;51.50;;;;;;5003620;28;20093;-88
2022/08/02 11:36:24;;;;;;;1.75;1.23;;;45.40;50.40;;;;;;5002444;28;20032;-88
2022/08/02 11:39:13;;;;;;;2.67;1.02;;;46.20;49.80;;;;;;5003672;28;20030;-87
2022/08/02 11:42:13;;;;;;;2.78;1.52;;;46.50;49.40;;;;;;5003321;28;20018;-88
2022/08/02 11:44:54;;;;;;;1.80;1.35;;;46.20;49.30;;;;;;5004517;28;20041;-86
2022/08/02 11:47:27;;;;;;;1.63;1.10;;;45.50;49.80;;;;;;5020944;28;20034;-86
2022/08/02 11:50:23;;;;;;;2.92;1.10;;;45.00;49.00;;;;;;5004688;28;20057;-87
2022/08/02 11:52:52;;;;;;;2.33;1.10;;;45.30;49.00;;;;;;5025667;28;20033;-86
2022/08/02 11:55:34;;;;;;;1.88;1.00;;;45.60;48.90;;;;;;5005858;28;20030;-87
2022/08/02 11:58:10;;;;;;;2.35;1.10;;;46.20;47.80;;;;;;5027489;28;20030;-86
2022/08/02 12:00:37;;;;;;;1.50;0.95;;;46.20;48.00;;;;;;5009643;28;20037;-87
2022/08/02 12:03:21;;;;;;;4.28;1.10;;;46.20;47.60;;;;;;5036530;28;20034;-88
2022/08/02 12:05:59;;;;;;;1.23;1.00;;;46.30;47.20;;;;;;5036783;28;20036;-86
2022/08/02 12:08:31;;;;;;;1.60;0.93;;;46.10;46.80;;;;;;5022948;28;20084;-87
2022/08/02 12:11:16;;;;;;;1.20;1.05;;;46.50;47.00;;;;;;5039194;28;20014;-87
2022/08/02 12:14:01;;;;;;;2.25;1.00;;;45.90;46.20;;;;;;5038801;28;20081;-86
2022/08/02 12:20:16;;;;;;;1.20;1.10;;;44.90;46.50;;;;;;5024049;28;20018;-88
2022/08/02 12:22:47;;;;;;;0.93;0.93;;;45.80;47.10;;;;;;5000230;28;20041;-89
2022/08/02 12:25:30;;;;;;;1.00;0.90;;;45.70;46.60;;;;;;5015603;28;20034;-88
2022/08/02 12:28:21;;;;;;;1.23;1.05;;;44.70;46.80;;;;;;5003718;28;20073;-87
2022/08/02 12:31:21;;;;;;;1.90;1.02;;;44.00;47.50;;;;;;5036194;28;20030;-87
2022/08/02 12:33:59;;;;;;;3.17;1.27;;;44.70;47.50;;;;;;4992214;28;20050;-88
2022/08/02 12:37:08;;;;;;;2.13;1.10;;;45.60;47.20;;;;;;5016764;28;20044;-86
2022/08/02 12:40:00;;;;;;;1.65;1.00;;;46.10;46.40;;;;;;5016523;28;20037;-87
2022/08/02 12:43:13;;;;;;;0.98;0.93;;;46.20;46.10;;;;;;5019011;28;20036;-85
2022/08/02 12:46:08;;;;;;;;;;;;;;;;;;;;;
2022/08/02 12:50:11;;;;;;;2.15;1.33;;;46.20;46.20;;;;;;5036999;28;20034;-87
2022/08/02 12:52:26;;;;;;;1.25;1.15;;;46.30;46.30;;;;;;5024204;28;20099;-87
2022/08/02 13:02:16;;;;;;;1.13;1.00;;;47.30;45.30;;;;;;4985737;28;20054;-87
2022/08/02 13:04:51;;;;;;;5.97;1.10;;;47.50;45.20;;;;;;4912374;29;20043;-89
2022/08/02 13:07:26;;;;;;;5.07;1.02;;;47.30;45.10;;;;;;5028576;28;20033;-90
2022/08/02 13:10:36;;;;;;;1.30;1.20;;;46.90;45.10;;;;;;5035403;28;20049;-88
2022/08/02 13:13:15;;;;;;;1.08;0.98;;;46.20;45.40;;;;;;5048892;28;20037;-87
2022/08/02 13:15:50;;;;;;;2.00;1.02;;;46.00;46.00;;;;;;5021673;28;20049;-88
2022/08/02 13:18:20;;;;;;;2.60;1.20;;;45.60;46.40;;;;;;5023441;28;20018;-87
2022/08/02 13:20:49;;;;;;;2.65;1.10;;;45.70;46.30;;;;;;5046081;28;20010;-87
2022/08/02 13:26:36;;;;;;;1.75;1.20;;;46.00;45.60;;;;;;5036764;28;20114;-86
2022/08/02 13:29:10;;;;;;;1.30;1.20;;;46.40;45.30;;;;;;5056214;28;20093;-87
2022/08/02 13:31:39;;;;;;;4.25;1.27;;;46.10;45.30;;;;;;5054787;28;20026;-86
2022/08/02 13:34:06;;;;;;;1.58;1.00;;;46.00;45.20;;;;;;5042876;28;20014;-87
2022/08/02 13:36:34;;;;;;;1.50;1.27;;;45.90;45.30;;;;;;5020402;28;20025;-89
2022/08/02 13:39:11;;;;;;;2.80;1.55;;;45.80;45.50;;;;;;5046276;28;20029;-87
2022/08/02 13:41:40;;;;;;;1.83;1.40;;;46.20;45.20;;;;;;5038088;28;20052;-87